Cherryplain, New York
Current Conditions -  °F | °C
As of 11:06 AM on Friday 24 Oct 2014 (Local Time) from KAQW Reporting Station
Overcast Overcast  
Wind Chill: 39°   Ceiling: 2200
Heat Index: 45°   Visibility: 10mi
Dew Point: 41°   Wind: 13mph
Humidity: 86%   Direction: 270°W
Pressure: 29.82"   Gusts: 21mph
Location:  42.6328°N, 73.3562°W
Report Text: KAQW 241506Z AUTO 27011G18KT 10SM BKN022 BKN027 OVC034 07/05 A2982 RMK AO2 T00720050
Loading
Personal Weather Stations






























Interactive Weather Map
Tropical Storm Tracking
New forecast layout! Learn more

10-Day Weather Forecast

Advertisements
Track Severe Weather on mobile